sensor_id;sensor_type;location;lat;lon;timestamp;P1;durP1;ratioP1;P2;durP2;ratioP2
38182;SDS011;23991;52.430;10.586;2023-11-21T00:00:14;14.82;;;7.35;;
38182;SDS011;23991;52.430;10.586;2023-11-21T00:02:40;18.73;;;7.00;;
38182;SDS011;23991;52.430;10.586;2023-11-21T00:05:07;12.52;;;7.63;;
38182;SDS011;23991;52.430;10.586;2023-11-21T00:07:34;15.60;;;7.10;;
38182;SDS011;23991;52.430;10.586;2023-11-21T00:10:01;14.43;;;6.90;;
38182;SDS011;23991;52.430;10.586;2023-11-21T00:12:27;18.75;;;7.05;;
38182;SDS011;23991;52.430;10.586;2023-11-21T00:14:54;16.70;;;7.30;;
38182;SDS011;23991;52.430;10.586;2023-11-21T00:17:20;13.90;;;6.78;;
38182;SDS011;23991;52.430;10.586;2023-11-21T00:19:46;21.88;;;7.53;;
38182;SDS011;23991;52.430;10.586;2023-11-21T00:22:12;19.80;;;6.95;;
38182;SDS011;23991;52.430;10.586;2023-11-21T00:24:38;22.48;;;7.57;;
38182;SDS011;23991;52.430;10.586;2023-11-21T00:27:03;21.52;;;7.78;;
38182;SDS011;23991;52.430;10.586;2023-11-21T00:29:29;20.40;;;7.95;;
38182;SDS011;23991;52.430;10.586;2023-11-21T00:31:55;19.48;;;6.80;;
38182;SDS011;23991;52.430;10.586;2023-11-21T00:34:20;15.82;;;7.38;;
38182;SDS011;23991;52.430;10.586;2023-11-21T00:36:46;14.35;;;6.97;;
38182;SDS011;23991;52.430;10.586;2023-11-21T00:39:12;14.93;;;7.68;;
38182;SDS011;23991;52.430;10.586;2023-11-21T00:41:37;17.67;;;7.53;;
38182;SDS011;23991;52.430;10.586;2023-11-21T00:44:03;15.13;;;7.97;;
38182;SDS011;23991;52.430;10.586;2023-11-21T00:46:29;18.38;;;6.97;;
38182;SDS011;23991;52.430;10.586;2023-11-21T00:48:55;18.48;;;8.15;;
38182;SDS011;23991;52.430;10.586;2023-11-21T00:51:21;17.15;;;7.88;;
38182;SDS011;23991;52.430;10.586;2023-11-21T00:53:47;17.67;;;8.38;;
38182;SDS011;23991;52.430;10.586;2023-11-21T00:56:13;16.05;;;7.80;;
38182;SDS011;23991;52.430;10.586;2023-11-21T00:58:40;18.05;;;6.93;;
38182;SDS011;23991;52.430;10.586;2023-11-21T01:01:11;12.60;;;7.32;;
38182;SDS011;23991;52.430;10.586;2023-11-21T01:03:37;20.08;;;7.95;;
38182;SDS011;23991;52.430;10.586;2023-11-21T01:06:03;16.83;;;7.93;;
38182;SDS011;23991;52.430;10.586;2023-11-21T01:08:32;16.63;;;7.65;;
38182;SDS011;23991;52.430;10.586;2023-11-21T01:10:58;16.27;;;7.22;;
38182;SDS011;23991;52.430;10.586;2023-11-21T01:13:23;22.80;;;7.93;;
38182;SDS011;23991;52.430;10.586;2023-11-21T01:15:53;22.35;;;7.70;;
38182;SDS011;23991;52.430;10.586;2023-11-21T01:18:19;21.60;;;8.07;;
38182;SDS011;23991;52.430;10.586;2023-11-21T01:20:45;15.50;;;7.60;;
38182;SDS011;23991;52.430;10.586;2023-11-21T01:23:12;19.98;;;8.20;;
38182;SDS011;23991;52.430;10.586;2023-11-21T01:25:38;17.65;;;7.43;;
38182;SDS011;23991;52.430;10.586;2023-11-21T01:28:04;16.73;;;7.30;;
38182;SDS011;23991;52.430;10.586;2023-11-21T01:30:30;19.05;;;7.63;;
38182;SDS011;23991;52.430;10.586;2023-11-21T01:32:57;20.40;;;7.95;;
38182;SDS011;23991;52.430;10.586;2023-11-21T01:35:24;17.65;;;7.88;;
38182;SDS011;23991;52.430;10.586;2023-11-21T01:37:49;14.70;;;7.38;;
38182;SDS011;23991;52.430;10.586;2023-11-21T01:40:15;18.80;;;8.00;;
38182;SDS011;23991;52.430;10.586;2023-11-21T01:42:42;17.60;;;7.70;;
38182;SDS011;23991;52.430;10.586;2023-11-21T01:45:09;15.90;;;7.60;;
38182;SDS011;23991;52.430;10.586;2023-11-21T01:47:35;16.83;;;7.30;;
38182;SDS011;23991;52.430;10.586;2023-11-21T01:50:03;15.50;;;6.90;;
38182;SDS011;23991;52.430;10.586;2023-11-21T01:52:30;26.13;;;8.75;;
38182;SDS011;23991;52.430;10.586;2023-11-21T01:54:57;17.27;;;8.05;;
38182;SDS011;23991;52.430;10.586;2023-11-21T01:57:24;16.95;;;7.50;;
38182;SDS011;23991;52.430;10.586;2023-11-21T01:59:50;14.13;;;7.15;;
38182;SDS011;23991;52.430;10.586;2023-11-21T02:02:19;20.52;;;8.27;;
38182;SDS011;23991;52.430;10.586;2023-11-21T02:04:44;16.10;;;7.65;;
38182;SDS011;23991;52.430;10.586;2023-11-21T02:07:10;16.23;;;8.13;;
38182;SDS011;23991;52.430;10.586;2023-11-21T02:09:36;13.25;;;7.57;;
38182;SDS011;23991;52.430;10.586;2023-11-21T02:12:07;18.58;;;8.68;;
38182;SDS011;23991;52.430;10.586;2023-11-21T02:14:35;15.85;;;8.98;;
38182;SDS011;23991;52.430;10.586;2023-11-21T02:17:01;21.15;;;8.57;;
38182;SDS011;23991;52.430;10.586;2023-11-21T02:19:28;20.80;;;8.73;;
38182;SDS011;23991;52.430;10.586;2023-11-21T02:21:55;18.75;;;8.80;;
38182;SDS011;23991;52.430;10.586;2023-11-21T02:24:34;20.70;;;8.32;;
38182;SDS011;23991;52.430;10.586;2023-11-21T02:27:00;17.52;;;8.27;;
38182;SDS011;23991;52.430;10.586;2023-11-21T02:29:25;17.73;;;8.55;;
38182;SDS011;23991;52.430;10.586;2023-11-21T02:31:53;17.88;;;8.30;;
38182;SDS011;23991;52.430;10.586;2023-11-21T02:34:20;21.08;;;9.60;;
38182;SDS011;23991;52.430;10.586;2023-11-21T02:36:46;14.93;;;9.30;;
38182;SDS011;23991;52.430;10.586;2023-11-21T02:39:14;24.73;;;9.38;;
38182;SDS011;23991;52.430;10.586;2023-11-21T02:41:41;23.83;;;9.90;;
38182;SDS011;23991;52.430;10.586;2023-11-21T02:44:07;21.13;;;9.35;;
38182;SDS011;23991;52.430;10.586;2023-11-21T02:46:33;20.23;;;9.45;;
38182;SDS011;23991;52.430;10.586;2023-11-21T02:49:03;18.80;;;9.75;;
38182;SDS011;23991;52.430;10.586;2023-11-21T02:51:31;19.98;;;10.35;;
38182;SDS011;23991;52.430;10.586;2023-11-21T02:53:57;26.02;;;10.68;;
38182;SDS011;23991;52.430;10.586;2023-11-21T02:56:28;19.83;;;9.60;;
38182;SDS011;23991;52.430;10.586;2023-11-21T02:58:59;20.88;;;9.88;;
38182;SDS011;23991;52.430;10.586;2023-11-21T03:01:25;19.10;;;9.93;;
38182;SDS011;23991;52.430;10.586;2023-11-21T03:03:51;21.23;;;10.68;;
38182;SDS011;23991;52.430;10.586;2023-11-21T03:06:20;22.38;;;10.07;;
38182;SDS011;23991;52.430;10.586;2023-11-21T03:08:46;19.67;;;10.77;;
38182;SDS011;23991;52.430;10.586;2023-11-21T03:11:12;18.13;;;10.23;;
38182;SDS011;23991;52.430;10.586;2023-11-21T03:13:41;21.02;;;9.55;;
38182;SDS011;23991;52.430;10.586;2023-11-21T03:16:08;20.47;;;10.80;;
38182;SDS011;23991;52.430;10.586;2023-11-21T03:18:35;23.08;;;11.05;;
38182;SDS011;23991;52.430;10.586;2023-11-21T03:21:07;23.20;;;11.73;;
38182;SDS011;23991;52.430;10.586;2023-11-21T03:23:36;24.85;;;12.07;;
38182;SDS011;23991;52.430;10.586;2023-11-21T03:26:02;27.13;;;12.18;;
38182;SDS011;23991;52.430;10.586;2023-11-21T03:28:28;27.08;;;11.30;;
38182;SDS011;23991;52.430;10.586;2023-11-21T03:30:55;23.80;;;10.82;;
38182;SDS011;23991;52.430;10.586;2023-11-21T03:33:21;23.88;;;11.38;;
38182;SDS011;23991;52.430;10.586;2023-11-21T03:35:47;28.52;;;11.70;;
38182;SDS011;23991;52.430;10.586;2023-11-21T03:38:13;22.83;;;12.25;;
38182;SDS011;23991;52.430;10.586;2023-11-21T03:40:39;19.42;;;10.95;;
38182;SDS011;23991;52.430;10.586;2023-11-21T03:43:05;22.23;;;11.50;;
38182;SDS011;23991;52.430;10.586;2023-11-21T03:45:31;23.42;;;11.73;;
38182;SDS011;23991;52.430;10.586;2023-11-21T03:47:57;28.75;;;11.55;;
38182;SDS011;23991;52.430;10.586;2023-11-21T03:50:23;24.58;;;12.70;;
38182;SDS011;23991;52.430;10.586;2023-11-21T03:52:51;27.67;;;11.82;;
38182;SDS011;23991;52.430;10.586;2023-11-21T03:55:17;27.98;;;13.05;;
38182;SDS011;23991;52.430;10.586;2023-11-21T03:57:43;27.80;;;12.60;;
38182;SDS011;23991;52.430;10.586;2023-11-21T04:00:08;25.30;;;13.25;;
38182;SDS011;23991;52.430;10.586;2023-11-21T04:02:35;27.92;;;13.27;;
38182;SDS011;23991;52.430;10.586;2023-11-21T04:05:00;26.75;;;12.52;;
38182;SDS011;23991;52.430;10.586;2023-11-21T04:07:26;29.85;;;13.30;;
38182;SDS011;23991;52.430;10.586;2023-11-21T04:09:52;28.25;;;12.50;;
38182;SDS011;23991;52.430;10.586;2023-11-21T04:12:18;22.90;;;12.15;;
38182;SDS011;23991;52.430;10.586;2023-11-21T04:14:44;30.25;;;13.40;;
38182;SDS011;23991;52.430;10.586;2023-11-21T04:17:10;27.88;;;12.77;;
38182;SDS011;23991;52.430;10.586;2023-11-21T04:19:36;27.83;;;13.45;;
38182;SDS011;23991;52.430;10.586;2023-11-21T04:22:01;30.40;;;13.02;;
38182;SDS011;23991;52.430;10.586;2023-11-21T04:24:27;28.85;;;12.77;;
38182;SDS011;23991;52.430;10.586;2023-11-21T04:26:53;28.52;;;12.98;;
38182;SDS011;23991;52.430;10.586;2023-11-21T04:29:18;26.70;;;12.75;;
38182;SDS011;23991;52.430;10.586;2023-11-21T04:31:44;22.58;;;12.52;;
38182;SDS011;23991;52.430;10.586;2023-11-21T04:34:11;27.20;;;12.70;;
38182;SDS011;23991;52.430;10.586;2023-11-21T04:36:38;26.10;;;14.07;;
38182;SDS011;23991;52.430;10.586;2023-11-21T04:39:03;26.83;;;13.57;;
38182;SDS011;23991;52.430;10.586;2023-11-21T04:41:29;21.30;;;12.77;;
38182;SDS011;23991;52.430;10.586;2023-11-21T04:43:56;20.70;;;12.52;;
38182;SDS011;23991;52.430;10.586;2023-11-21T04:46:23;26.15;;;13.23;;
38182;SDS011;23991;52.430;10.586;2023-11-21T04:48:49;25.52;;;13.43;;
38182;SDS011;23991;52.430;10.586;2023-11-21T04:51:14;22.77;;;12.50;;
38182;SDS011;23991;52.430;10.586;2023-11-21T04:53:40;21.52;;;12.57;;
38182;SDS011;23991;52.430;10.586;2023-11-21T04:56:06;17.00;;;10.68;;
38182;SDS011;23991;52.430;10.586;2023-11-21T04:58:32;18.42;;;9.25;;
38182;SDS011;23991;52.430;10.586;2023-11-21T05:00:58;19.17;;;9.93;;
38182;SDS011;23991;52.430;10.586;2023-11-21T05:03:23;12.23;;;7.07;;
38182;SDS011;23991;52.430;10.586;2023-11-21T05:05:49;7.15;;;4.32;;
38182;SDS011;23991;52.430;10.586;2023-11-21T05:08:15;5.30;;;3.35;;
38182;SDS011;23991;52.430;10.586;2023-11-21T05:10:40;4.85;;;2.97;;
38182;SDS011;23991;52.430;10.586;2023-11-21T05:13:06;5.18;;;2.60;;
38182;SDS011;23991;52.430;10.586;2023-11-21T05:15:35;4.97;;;2.55;;
38182;SDS011;23991;52.430;10.586;2023-11-21T05:18:01;7.72;;;2.45;;
38182;SDS011;23991;52.430;10.586;2023-11-21T05:20:27;4.97;;;2.50;;
38182;SDS011;23991;52.430;10.586;2023-11-21T05:22:53;8.55;;;3.08;;
38182;SDS011;23991;52.430;10.586;2023-11-21T05:25:19;4.00;;;2.55;;
38182;SDS011;23991;52.430;10.586;2023-11-21T05:27:47;6.68;;;3.15;;
38182;SDS011;23991;52.430;10.586;2023-11-21T05:30:13;5.32;;;3.10;;
38182;SDS011;23991;52.430;10.586;2023-11-21T05:32:39;5.68;;;3.28;;
38182;SDS011;23991;52.430;10.586;2023-11-21T05:35:09;5.68;;;3.97;;
38182;SDS011;23991;52.430;10.586;2023-11-21T05:37:37;7.10;;;4.82;;
38182;SDS011;23991;52.430;10.586;2023-11-21T05:40:06;8.20;;;5.10;;
38182;SDS011;23991;52.430;10.586;2023-11-21T05:42:33;8.00;;;4.78;;
38182;SDS011;23991;52.430;10.586;2023-11-21T05:44:59;8.77;;;4.80;;
38182;SDS011;23991;52.430;10.586;2023-11-21T05:47:44;10.15;;;5.60;;
38182;SDS011;23991;52.430;10.586;2023-11-21T05:50:11;8.73;;;5.85;;
38182;SDS011;23991;52.430;10.586;2023-11-21T05:52:48;8.23;;;5.38;;
38182;SDS011;23991;52.430;10.586;2023-11-21T05:55:14;9.55;;;6.45;;
38182;SDS011;23991;52.430;10.586;2023-11-21T05:57:41;10.52;;;6.50;;
38182;SDS011;23991;52.430;10.586;2023-11-21T06:00:12;12.02;;;6.50;;
38182;SDS011;23991;52.430;10.586;2023-11-21T06:02:54;9.98;;;5.95;;
38182;SDS011;23991;52.430;10.586;2023-11-21T06:05:21;10.00;;;6.80;;
38182;SDS011;23991;52.430;10.586;2023-11-21T06:07:49;11.13;;;6.63;;
38182;SDS011;23991;52.430;10.586;2023-11-21T06:10:15;12.13;;;7.00;;
38182;SDS011;23991;52.430;10.586;2023-11-21T06:12:42;9.85;;;6.22;;
38182;SDS011;23991;52.430;10.586;2023-11-21T06:15:09;16.90;;;7.05;;
38182;SDS011;23991;52.430;10.586;2023-11-21T06:17:38;11.88;;;7.93;;
38182;SDS011;23991;52.430;10.586;2023-11-21T06:20:08;10.63;;;6.93;;
38182;SDS011;23991;52.430;10.586;2023-11-21T06:22:36;10.85;;;7.15;;
38182;SDS011;23991;52.430;10.586;2023-11-21T06:25:03;12.35;;;7.47;;
38182;SDS011;23991;52.430;10.586;2023-11-21T06:27:31;13.73;;;7.93;;
38182;SDS011;23991;52.430;10.586;2023-11-21T06:29:57;13.23;;;8.52;;
38182;SDS011;23991;52.430;10.586;2023-11-21T06:32:23;15.85;;;8.23;;
38182;SDS011;23991;52.430;10.586;2023-11-21T06:34:49;13.65;;;8.82;;
38182;SDS011;23991;52.430;10.586;2023-11-21T06:37:15;14.25;;;8.35;;
38182;SDS011;23991;52.430;10.586;2023-11-21T06:39:41;13.00;;;7.85;;
38182;SDS011;23991;52.430;10.586;2023-11-21T06:42:07;16.35;;;8.55;;
38182;SDS011;23991;52.430;10.586;2023-11-21T06:44:33;16.42;;;8.13;;
38182;SDS011;23991;52.430;10.586;2023-11-21T06:47:00;12.77;;;8.18;;
38182;SDS011;23991;52.430;10.586;2023-11-21T06:49:26;17.27;;;8.88;;
38182;SDS011;23991;52.430;10.586;2023-11-21T06:51:51;14.20;;;8.68;;
38182;SDS011;23991;52.430;10.586;2023-11-21T06:54:18;14.02;;;7.63;;
38182;SDS011;23991;52.430;10.586;2023-11-21T06:56:44;17.92;;;8.77;;
38182;SDS011;23991;52.430;10.586;2023-11-21T06:59:09;14.80;;;8.18;;
38182;SDS011;23991;52.430;10.586;2023-11-21T07:01:36;13.95;;;8.40;;
38182;SDS011;23991;52.430;10.586;2023-11-21T07:04:04;13.95;;;8.50;;
38182;SDS011;23991;52.430;10.586;2023-11-21T07:06:31;14.63;;;8.43;;
38182;SDS011;23991;52.430;10.586;2023-11-21T07:08:57;14.23;;;9.35;;
38182;SDS011;23991;52.430;10.586;2023-11-21T07:11:23;18.48;;;9.02;;
38182;SDS011;23991;52.430;10.586;2023-11-21T07:13:50;12.48;;;8.48;;
38182;SDS011;23991;52.430;10.586;2023-11-21T07:16:18;13.98;;;9.07;;
38182;SDS011;23991;52.430;10.586;2023-11-21T07:18:44;13.07;;;8.25;;
38182;SDS011;23991;52.430;10.586;2023-11-21T07:21:10;13.05;;;8.85;;
38182;SDS011;23991;52.430;10.586;2023-11-21T07:23:40;14.25;;;9.10;;
38182;SDS011;23991;52.430;10.586;2023-11-21T07:26:06;13.30;;;8.95;;
38182;SDS011;23991;52.430;10.586;2023-11-21T07:28:34;15.82;;;9.10;;
38182;SDS011;23991;52.430;10.586;2023-11-21T07:31:00;12.77;;;8.45;;
38182;SDS011;23991;52.430;10.586;2023-11-21T07:33:26;14.30;;;8.95;;
38182;SDS011;23991;52.430;10.586;2023-11-21T07:35:52;15.43;;;8.60;;
38182;SDS011;23991;52.430;10.586;2023-11-21T07:38:18;17.25;;;8.95;;
38182;SDS011;23991;52.430;10.586;2023-11-21T07:40:43;17.38;;;10.60;;
38182;SDS011;23991;52.430;10.586;2023-11-21T07:43:09;11.85;;;7.70;;
38182;SDS011;23991;52.430;10.586;2023-11-21T07:45:35;14.77;;;8.43;;
38182;SDS011;23991;52.430;10.586;2023-11-21T07:48:01;14.43;;;8.10;;
38182;SDS011;23991;52.430;10.586;2023-11-21T07:50:28;13.52;;;8.07;;
38182;SDS011;23991;52.430;10.586;2023-11-21T07:52:54;12.38;;;7.47;;
38182;SDS011;23991;52.430;10.586;2023-11-21T07:55:20;11.48;;;7.47;;
38182;SDS011;23991;52.430;10.586;2023-11-21T07:57:46;12.32;;;7.63;;
38182;SDS011;23991;52.430;10.586;2023-11-21T08:00:12;13.25;;;8.00;;
38182;SDS011;23991;52.430;10.586;2023-11-21T08:02:40;9.23;;;6.50;;
38182;SDS011;23991;52.430;10.586;2023-11-21T08:05:07;10.23;;;6.68;;
38182;SDS011;23991;52.430;10.586;2023-11-21T08:07:33;10.30;;;6.57;;
38182;SDS011;23991;52.430;10.586;2023-11-21T08:09:59;10.80;;;7.68;;
38182;SDS011;23991;52.430;10.586;2023-11-21T08:12:25;10.25;;;6.60;;
38182;SDS011;23991;52.430;10.586;2023-11-21T08:14:52;9.75;;;6.70;;
38182;SDS011;23991;52.430;10.586;2023-11-21T08:17:18;10.50;;;6.00;;
38182;SDS011;23991;52.430;10.586;2023-11-21T08:19:45;10.88;;;6.35;;
38182;SDS011;23991;52.430;10.586;2023-11-21T08:22:14;9.45;;;6.45;;
38182;SDS011;23991;52.430;10.586;2023-11-21T08:24:41;7.93;;;5.38;;
38182;SDS011;23991;52.430;10.586;2023-11-21T08:27:07;8.73;;;6.10;;
38182;SDS011;23991;52.430;10.586;2023-11-21T08:29:32;10.73;;;6.03;;
38182;SDS011;23991;52.430;10.586;2023-11-21T08:31:59;9.27;;;6.68;;
38182;SDS011;23991;52.430;10.586;2023-11-21T08:34:25;9.35;;;6.13;;
38182;SDS011;23991;52.430;10.586;2023-11-21T08:36:50;9.70;;;6.03;;
38182;SDS011;23991;52.430;10.586;2023-11-21T08:39:16;9.60;;;5.72;;
38182;SDS011;23991;52.430;10.586;2023-11-21T08:41:44;9.75;;;6.18;;
38182;SDS011;23991;52.430;10.586;2023-11-21T08:44:09;12.43;;;5.90;;
38182;SDS011;23991;52.430;10.586;2023-11-21T08:46:36;9.27;;;5.88;;
38182;SDS011;23991;52.430;10.586;2023-11-21T08:49:03;8.65;;;5.97;;
38182;SDS011;23991;52.430;10.586;2023-11-21T08:51:29;8.95;;;5.28;;
38182;SDS011;23991;52.430;10.586;2023-11-21T08:53:54;8.70;;;6.15;;
38182;SDS011;23991;52.430;10.586;2023-11-21T08:56:24;7.45;;;5.00;;
38182;SDS011;23991;52.430;10.586;2023-11-21T08:58:50;8.20;;;5.32;;
38182;SDS011;23991;52.430;10.586;2023-11-21T09:01:15;12.50;;;5.38;;
38182;SDS011;23991;52.430;10.586;2023-11-21T09:03:42;8.57;;;5.30;;
38182;SDS011;23991;52.430;10.586;2023-11-21T09:06:08;9.23;;;5.38;;
38182;SDS011;23991;52.430;10.586;2023-11-21T09:08:35;10.18;;;5.47;;
38182;SDS011;23991;52.430;10.586;2023-11-21T09:11:00;7.93;;;5.60;;
38182;SDS011;23991;52.430;10.586;2023-11-21T09:13:27;7.95;;;5.07;;
38182;SDS011;23991;52.430;10.586;2023-11-21T09:15:54;7.47;;;5.40;;
38182;SDS011;23991;52.430;10.586;2023-11-21T09:18:20;7.97;;;4.68;;
38182;SDS011;23991;52.430;10.586;2023-11-21T09:20:46;7.88;;;4.78;;
38182;SDS011;23991;52.430;10.586;2023-11-21T09:23:11;10.75;;;5.45;;
38182;SDS011;23991;52.430;10.586;2023-11-21T09:25:37;7.88;;;5.10;;
38182;SDS011;23991;52.430;10.586;2023-11-21T09:28:03;10.88;;;5.35;;
38182;SDS011;23991;52.430;10.586;2023-11-21T09:32:59;8.93;;;5.07;;
38182;SDS011;23991;52.430;10.586;2023-11-21T09:35:25;7.03;;;4.60;;
38182;SDS011;23991;52.430;10.586;2023-11-21T09:37:52;7.05;;;4.78;;
38182;SDS011;23991;52.430;10.586;2023-11-21T09:40:24;6.40;;;4.10;;
38182;SDS011;23991;52.430;10.586;2023-11-21T09:42:55;7.03;;;4.85;;
38182;SDS011;23991;52.430;10.586;2023-11-21T09:47:51;9.77;;;5.18;;
38182;SDS011;23991;52.430;10.586;2023-11-21T09:50:19;7.07;;;4.55;;
38182;SDS011;23991;52.430;10.586;2023-11-21T09:55:34;5.95;;;4.50;;
38182;SDS011;23991;52.430;10.586;2023-11-21T09:58:05;7.07;;;4.50;;
38182;SDS011;23991;52.430;10.586;2023-11-21T10:00:33;7.07;;;4.88;;
38182;SDS011;23991;52.430;10.586;2023-11-21T10:02:59;6.13;;;4.57;;
38182;SDS011;23991;52.430;10.586;2023-11-21T10:05:25;6.18;;;4.38;;
38182;SDS011;23991;52.430;10.586;2023-11-21T10:07:51;9.05;;;5.35;;
38182;SDS011;23991;52.430;10.586;2023-11-21T10:10:19;7.55;;;5.07;;
38182;SDS011;23991;52.430;10.586;2023-11-21T10:12:48;7.82;;;5.28;;
38182;SDS011;23991;52.430;10.586;2023-11-21T10:15:18;6.55;;;4.70;;
38182;SDS011;23991;52.430;10.586;2023-11-21T10:17:46;7.43;;;5.20;;
38182;SDS011;23991;52.430;10.586;2023-11-21T10:20:19;6.22;;;4.50;;
38182;SDS011;23991;52.430;10.586;2023-11-21T10:22:45;7.30;;;4.82;;
38182;SDS011;23991;52.430;10.586;2023-11-21T10:25:12;5.90;;;4.28;;
38182;SDS011;23991;52.430;10.586;2023-11-21T10:30:08;7.32;;;5.28;;
38182;SDS011;23991;52.430;10.586;2023-11-21T10:32:41;8.45;;;4.88;;
38182;SDS011;23991;52.430;10.586;2023-11-21T10:35:08;8.13;;;5.10;;
38182;SDS011;23991;52.430;10.586;2023-11-21T10:37:40;6.18;;;4.65;;
38182;SDS011;23991;52.430;10.586;2023-11-21T10:40:09;7.97;;;4.40;;
38182;SDS011;23991;52.430;10.586;2023-11-21T10:42:37;6.93;;;4.65;;
38182;SDS011;23991;52.430;10.586;2023-11-21T10:45:07;8.60;;;4.75;;
38182;SDS011;23991;52.430;10.586;2023-11-21T10:47:39;8.77;;;5.30;;
38182;SDS011;23991;52.430;10.586;2023-11-21T10:50:07;6.72;;;5.13;;
38182;SDS011;23991;52.430;10.586;2023-11-21T10:52:42;7.50;;;4.72;;
38182;SDS011;23991;52.430;10.586;2023-11-21T10:55:19;9.27;;;4.85;;
38182;SDS011;23991;52.430;10.586;2023-11-21T10:57:48;7.57;;;4.35;;
38182;SDS011;23991;52.430;10.586;2023-11-21T11:00:17;6.40;;;4.68;;
38182;SDS011;23991;52.430;10.586;2023-11-21T11:02:49;8.35;;;4.20;;
38182;SDS011;23991;52.430;10.586;2023-11-21T11:05:16;7.70;;;4.38;;
38182;SDS011;23991;52.430;10.586;2023-11-21T11:07:45;6.75;;;5.10;;
38182;SDS011;23991;52.430;10.586;2023-11-21T11:10:17;8.13;;;5.22;;
38182;SDS011;23991;52.430;10.586;2023-11-21T11:12:46;6.40;;;4.13;;
38182;SDS011;23991;52.430;10.586;2023-11-21T11:15:12;8.85;;;4.65;;
38182;SDS011;23991;52.430;10.586;2023-11-21T11:17:39;6.43;;;4.28;;
38182;SDS011;23991;52.430;10.586;2023-11-21T11:20:07;6.38;;;4.35;;
38182;SDS011;23991;52.430;10.586;2023-11-21T11:25:25;5.30;;;3.90;;
38182;SDS011;23991;52.430;10.586;2023-11-21T11:36:10;5.78;;;3.80;;
38182;SDS011;23991;52.430;10.586;2023-11-21T11:38:47;8.07;;;3.85;;
38182;SDS011;23991;52.430;10.586;2023-11-21T11:41:27;5.30;;;3.47;;
38182;SDS011;23991;52.430;10.586;2023-11-21T11:49:10;4.63;;;3.22;;
38182;SDS011;23991;52.430;10.586;2023-11-21T11:51:36;5.57;;;3.50;;
38182;SDS011;23991;52.430;10.586;2023-11-21T11:54:02;7.47;;;3.50;;
38182;SDS011;23991;52.430;10.586;2023-11-21T11:56:31;7.93;;;3.92;;
38182;SDS011;23991;52.430;10.586;2023-11-21T11:58:59;7.28;;;3.53;;
38182;SDS011;23991;52.430;10.586;2023-11-21T12:01:29;6.57;;;3.95;;
38182;SDS011;23991;52.430;10.586;2023-11-21T12:06:41;4.30;;;3.28;;
38182;SDS011;23991;52.430;10.586;2023-11-21T12:09:12;4.40;;;2.90;;
38182;SDS011;23991;52.430;10.586;2023-11-21T12:11:49;5.93;;;3.00;;
38182;SDS011;23991;52.430;10.586;2023-11-21T12:14:16;5.10;;;2.78;;
38182;SDS011;23991;52.430;10.586;2023-11-21T12:16:43;5.70;;;2.90;;
38182;SDS011;23991;52.430;10.586;2023-11-21T12:19:10;3.85;;;2.90;;
38182;SDS011;23991;52.430;10.586;2023-11-21T12:21:36;4.90;;;3.13;;
38182;SDS011;23991;52.430;10.586;2023-11-21T12:24:02;5.07;;;2.75;;
38182;SDS011;23991;52.430;10.586;2023-11-21T12:26:29;4.57;;;3.00;;
38182;SDS011;23991;52.430;10.586;2023-11-21T12:28:54;5.60;;;2.88;;
38182;SDS011;23991;52.430;10.586;2023-11-21T12:31:22;4.70;;;3.08;;
38182;SDS011;23991;52.430;10.586;2023-11-21T12:33:48;5.78;;;3.05;;
38182;SDS011;23991;52.430;10.586;2023-11-21T12:36:14;4.40;;;2.97;;
38182;SDS011;23991;52.430;10.586;2023-11-21T12:38:40;5.88;;;3.22;;
38182;SDS011;23991;52.430;10.586;2023-11-21T12:41:07;4.60;;;2.85;;
38182;SDS011;23991;52.430;10.586;2023-11-21T12:43:35;4.20;;;2.70;;
38182;SDS011;23991;52.430;10.586;2023-11-21T12:46:07;3.80;;;2.40;;
38182;SDS011;23991;52.430;10.586;2023-11-21T12:48:38;4.85;;;3.10;;
38182;SDS011;23991;52.430;10.586;2023-11-21T12:51:07;4.85;;;3.55;;
38182;SDS011;23991;52.430;10.586;2023-11-21T12:53:34;5.13;;;3.30;;
38182;SDS011;23991;52.430;10.586;2023-11-21T12:56:06;6.35;;;4.07;;
38182;SDS011;23991;52.430;10.586;2023-11-21T12:58:35;6.78;;;3.67;;
38182;SDS011;23991;52.430;10.586;2023-11-21T13:01:01;5.15;;;3.28;;
38182;SDS011;23991;52.430;10.586;2023-11-21T13:03:30;4.50;;;2.88;;
38182;SDS011;23991;52.430;10.586;2023-11-21T13:05:57;4.72;;;2.83;;
38182;SDS011;23991;52.430;10.586;2023-11-21T13:08:24;4.80;;;2.92;;
38182;SDS011;23991;52.430;10.586;2023-11-21T13:10:52;4.85;;;3.05;;
38182;SDS011;23991;52.430;10.586;2023-11-21T13:13:20;5.50;;;3.00;;
38182;SDS011;23991;52.430;10.586;2023-11-21T13:18:26;5.10;;;3.38;;
38182;SDS011;23991;52.430;10.586;2023-11-21T13:20:53;4.38;;;3.15;;
38182;SDS011;23991;52.430;10.586;2023-11-21T13:23:20;5.50;;;3.35;;
38182;SDS011;23991;52.430;10.586;2023-11-21T13:25:46;3.58;;;2.60;;
38182;SDS011;23991;52.430;10.586;2023-11-21T13:28:13;5.07;;;3.20;;
38182;SDS011;23991;52.430;10.586;2023-11-21T13:30:40;6.10;;;3.30;;
38182;SDS011;23991;52.430;10.586;2023-11-21T13:33:07;5.50;;;3.30;;
38182;SDS011;23991;52.430;10.586;2023-11-21T13:35:33;6.50;;;4.05;;
38182;SDS011;23991;52.430;10.586;2023-11-21T13:38:09;6.57;;;3.72;;
38182;SDS011;23991;52.430;10.586;2023-11-21T13:40:42;4.72;;;3.10;;
38182;SDS011;23991;52.430;10.586;2023-11-21T13:43:17;5.53;;;3.08;;
38182;SDS011;23991;52.430;10.586;2023-11-21T13:45:44;4.60;;;2.92;;
38182;SDS011;23991;52.430;10.586;2023-11-21T13:48:11;5.07;;;3.00;;
38182;SDS011;23991;52.430;10.586;2023-11-21T13:50:53;6.47;;;3.08;;
38182;SDS011;23991;52.430;10.586;2023-11-21T13:53:43;4.37;;;2.70;;
38182;SDS011;23991;52.430;10.586;2023-11-21T13:56:14;4.43;;;2.90;;
38182;SDS011;23991;52.430;10.586;2023-11-21T13:58:49;4.25;;;2.60;;
38182;SDS011;23991;52.430;10.586;2023-11-21T14:01:21;6.25;;;3.38;;
38182;SDS011;23991;52.430;10.586;2023-11-21T14:03:50;3.60;;;2.60;;
38182;SDS011;23991;52.430;10.586;2023-11-21T14:06:22;4.18;;;3.00;;
38182;SDS011;23991;52.430;10.586;2023-11-21T14:08:57;4.20;;;2.65;;
38182;SDS011;23991;52.430;10.586;2023-11-21T14:11:23;4.22;;;2.58;;
38182;SDS011;23991;52.430;10.586;2023-11-21T14:13:49;7.00;;;2.58;;
38182;SDS011;23991;52.430;10.586;2023-11-21T14:16:15;5.40;;;2.72;;
38182;SDS011;23991;52.430;10.586;2023-11-21T14:18:42;4.40;;;2.60;;
38182;SDS011;23991;52.430;10.586;2023-11-21T14:21:20;7.15;;;3.00;;
38182;SDS011;23991;52.430;10.586;2023-11-21T14:23:46;5.03;;;3.08;;
38182;SDS011;23991;52.430;10.586;2023-11-21T14:26:13;4.90;;;3.25;;
38182;SDS011;23991;52.430;10.586;2023-11-21T14:28:40;3.55;;;2.75;;
38182;SDS011;23991;52.430;10.586;2023-11-21T14:31:06;5.97;;;2.67;;
38182;SDS011;23991;52.430;10.586;2023-11-21T14:33:33;4.20;;;2.45;;
38182;SDS011;23991;52.430;10.586;2023-11-21T14:35:58;4.57;;;3.00;;
38182;SDS011;23991;52.430;10.586;2023-11-21T14:38:24;3.72;;;2.60;;
38182;SDS011;23991;52.430;10.586;2023-11-21T14:40:50;4.97;;;2.90;;
38182;SDS011;23991;52.430;10.586;2023-11-21T14:43:15;5.72;;;2.97;;
38182;SDS011;23991;52.430;10.586;2023-11-21T14:45:42;5.25;;;2.80;;
38182;SDS011;23991;52.430;10.586;2023-11-21T14:48:08;4.30;;;3.05;;
38182;SDS011;23991;52.430;10.586;2023-11-21T14:50:41;5.13;;;3.30;;
38182;SDS011;23991;52.430;10.586;2023-11-21T14:53:15;6.03;;;2.97;;
38182;SDS011;23991;52.430;10.586;2023-11-21T14:55:40;4.28;;;2.72;;
38182;SDS011;23991;52.430;10.586;2023-11-21T14:58:15;3.97;;;2.72;;